Time;durP1;ratioP1;P1;durP2;ratioP2;P2;SDS_P1;SDS_P2;PMS_P1;PMS_P2;Temp;Humidity;BMP_temperature;BMP_pressure;BME280_temperature;BME280_humidity;BME280_pressure;Samples;Min_cycle;Max_cycle;Signal;HPM_P1;HPM_P2
2022/03/19 00:02:18;;;;;;;18.67;8.70;;;2.70;99.90;1.60;103035;;;;590128;241;24109;-84
2022/03/19 00:04:43;;;;;;;14.27;8.77;;;2.60;99.90;1.60;103043;;;;583827;241;24090;-83
2022/03/19 00:07:18;;;;;;;18.83;7.97;;;2.60;99.90;1.40;103027;;;;589963;241;24119;-83
2022/03/19 00:09:42;;;;;;;17.20;8.47;;;2.50;99.90;1.40;103045;;;;583675;241;26258;-83
2022/03/19 00:12:14;;;;;;;25.97;8.80;;;2.40;99.90;1.30;103038;;;;584340;241;24066;-83
2022/03/19 00:14:40;;;;;;;20.07;8.67;;;2.30;99.90;1.20;103047;;;;586578;241;24062;-83
2022/03/19 00:17:06;;;;;;;18.17;8.87;;;2.30;99.90;1.20;103032;;;;584237;241;24057;-83
2022/03/19 00:19:33;;;;;;;18.97;9.07;;;2.20;99.90;1.10;103043;;;;589907;241;24175;-83
2022/03/19 00:22:05;;;;;;;21.67;9.97;;;2.20;99.90;1.10;103045;;;;590160;241;24102;-81
2022/03/19 00:24:33;;;;;;;21.00;12.87;;;2.10;99.90;1.10;103041;;;;583914;241;24105;-82
2022/03/19 00:26:57;;;;;;;30.53;14.00;;;2.10;99.90;1.10;103044;;;;584212;241;24076;-81
2022/03/19 00:29:25;;;;;;;29.70;15.93;;;2.10;99.90;1.20;103044;;;;584303;241;24108;-81
2022/03/19 00:31:53;;;;;;;29.37;15.33;;;2.20;99.90;1.30;103044;;;;584277;241;24078;-82
2022/03/19 00:34:21;;;;;;;33.33;15.23;;;2.30;99.90;1.40;103050;;;;593469;241;24111;-82
2022/03/19 00:36:49;;;;;;;21.77;10.03;;;2.30;99.90;1.40;103041;;;;584423;241;24064;-82
2022/03/19 00:39:17;;;;;;;21.30;9.53;;;2.40;99.90;1.50;103044;;;;584613;241;24068;-83
2022/03/19 00:41:45;;;;;;;22.20;8.60;;;2.50;99.90;1.50;103043;;;;591504;241;24110;-81
2022/03/19 00:44:13;;;;;;;24.13;8.90;;;2.60;99.90;1.60;103043;;;;591175;241;24167;-83
2022/03/19 00:46:41;;;;;;;17.53;9.53;;;2.60;99.90;1.60;103040;;;;585339;241;24057;-82
2022/03/19 00:49:09;;;;;;;26.67;9.57;;;2.70;99.90;1.60;103053;;;;590451;236;24088;-82
2022/03/19 00:51:41;;;;;;;23.27;9.57;;;2.70;99.90;1.70;103054;;;;595022;241;24088;-80
2022/03/19 00:54:06;;;;;;;21.07;10.20;;;2.70;99.90;1.70;103057;;;;583534;241;24084;-82
2022/03/19 00:56:36;;;;;;;18.73;9.60;;;2.70;99.90;1.80;103055;;;;584696;241;24083;-83
2022/03/19 00:59:02;;;;;;;15.17;8.33;;;2.80;99.90;1.80;103060;;;;584709;241;24141;-83
2022/03/19 01:01:30;;;;;;;19.83;9.63;;;2.90;99.90;1.80;103053;;;;590548;241;24082;-84
2022/03/19 01:03:58;;;;;;;19.33;9.80;;;2.80;99.90;1.90;103061;;;;584867;241;24064;-84
2022/03/19 01:06:26;;;;;;;28.03;10.53;;;2.90;99.90;1.90;103060;;;;590542;241;24077;-81
2022/03/19 01:08:54;;;;;;;24.83;10.30;;;3.00;99.90;2.00;103068;;;;593843;241;24077;-82
2022/03/19 01:11:23;;;;;;;23.07;9.67;;;3.10;99.90;2.10;103070;;;;584706;241;24104;-83
2022/03/19 01:13:54;;;;;;;25.60;10.53;;;3.10;99.90;2.10;103062;;;;594841;241;24112;-83
2022/03/19 01:16:19;;;;;;;23.03;9.67;;;3.10;99.90;2.20;103068;;;;584040;241;24066;-82
2022/03/19 01:18:46;;;;;;;20.00;10.60;;;3.20;99.90;2.20;103071;;;;589715;241;24121;-83
2022/03/19 01:21:14;;;;;;;30.80;13.13;;;3.20;99.90;2.30;103064;;;;584492;241;24133;-83
2022/03/19 01:23:42;;;;;;;24.83;13.07;;;3.30;99.90;2.30;103067;;;;588955;241;24164;-84
2022/03/19 01:26:10;;;;;;;30.27;13.10;;;3.30;99.90;2.40;103072;;;;584210;236;24132;-83
2022/03/19 01:28:42;;;;;;;21.43;10.97;;;3.40;99.90;2.40;103061;;;;606688;236;24033;-83
2022/03/19 01:31:07;;;;;;;24.43;10.67;;;3.50;99.90;2.40;103070;;;;596618;236;24084;-83
2022/03/19 01:33:38;;;;;;;20.00;10.17;;;3.40;99.90;2.50;103064;;;;596936;236;24103;-82
2022/03/19 01:36:03;;;;;;;22.63;10.03;;;3.50;99.90;2.50;103078;;;;596721;236;24079;-82
2022/03/19 01:38:34;;;;;;;23.37;10.23;;;3.60;99.90;2.60;103078;;;;596969;236;24089;-83
2022/03/19 01:41:01;;;;;;;23.63;10.20;;;3.60;99.90;2.60;103078;;;;596133;236;24083;-82
2022/03/19 01:43:30;;;;;;;23.50;11.37;;;3.70;99.90;2.70;103081;;;;596628;236;24055;-83
2022/03/19 01:46:02;;;;;;;28.33;10.87;;;3.70;99.90;2.70;103079;;;;596673;236;24147;-83
2022/03/19 01:48:26;;;;;;;27.13;9.97;;;3.70;99.90;2.70;103072;;;;596326;236;24087;-83
2022/03/19 01:50:54;;;;;;;19.30;10.10;;;3.70;99.90;2.80;103079;;;;603172;236;24022;-82
2022/03/19 01:53:21;;;;;;;24.83;10.23;;;3.80;99.90;2.80;103077;;;;597884;236;24097;-83
2022/03/19 01:55:49;;;;;;;22.63;9.23;;;3.80;99.90;2.80;103081;;;;597458;236;24085;-82
2022/03/19 01:58:17;;;;;;;26.67;10.60;;;3.80;99.90;2.80;103070;;;;603151;236;24049;-82
2022/03/19 02:00:45;;;;;;;25.63;11.23;;;3.80;99.90;2.80;103069;;;;597137;236;24093;-82
2022/03/19 02:03:13;;;;;;;27.27;12.83;;;3.90;99.90;2.90;103075;;;;593963;236;25071;-83
2022/03/19 02:05:45;;;;;;;30.63;12.10;;;3.90;99.90;2.90;103081;;;;596792;236;24039;-80
2022/03/19 02:08:12;;;;;;;26.80;11.93;;;3.90;99.90;2.90;103075;;;;597004;236;24070;-82
2022/03/19 02:10:40;;;;;;;25.67;12.37;;;4.00;99.90;2.90;103081;;;;596752;236;24105;-83
2022/03/19 02:13:08;;;;;;;23.97;11.67;;;4.00;99.90;3.00;103084;;;;594274;236;25240;-82
2022/03/19 02:15:35;;;;;;;26.43;13.03;;;3.90;99.90;3.00;103085;;;;596555;236;27298;-82
2022/03/19 02:18:01;;;;;;;32.43;13.53;;;3.90;99.90;2.90;103073;;;;596678;236;24093;-82
2022/03/19 02:20:35;;;;;;;30.47;14.30;;;3.90;99.90;2.90;103079;;;;596983;236;24095;-83
2022/03/19 02:25:49;;;;;;;33.50;14.10;;;3.90;99.90;3.00;103069;;;;597275;236;24042;-82
2022/03/19 02:28:17;;;;;;;33.17;14.53;;;3.90;99.90;3.00;103071;;;;596984;236;24040;-82
2022/03/19 02:30:45;;;;;;;29.10;13.43;;;3.90;99.90;3.00;103069;;;;606615;236;24065;-82
2022/03/19 02:33:13;;;;;;;33.90;14.47;;;3.90;99.90;3.00;103065;;;;596621;236;24032;-81
2022/03/19 02:35:42;;;;;;;27.97;13.60;;;4.00;99.90;3.00;103071;;;;597166;236;24051;-82
2022/03/19 02:38:13;;;;;;;30.30;12.70;;;3.90;99.90;3.00;103072;;;;596875;236;24063;-82
2022/03/19 02:40:37;;;;;;;30.20;13.03;;;4.00;99.90;3.00;103072;;;;596731;236;24044;-82
2022/03/19 02:43:05;;;;;;;29.37;11.83;;;4.00;99.90;3.00;103077;;;;596622;236;24097;-82
2022/03/19 02:45:34;;;;;;;25.07;11.57;;;4.00;99.90;3.00;103077;;;;596516;236;24027;-82
2022/03/19 02:48:06;;;;;;;28.17;11.67;;;4.00;99.90;3.00;103072;;;;596708;236;24051;-83
2022/03/19 02:50:33;;;;;;;28.83;12.40;;;4.00;99.90;3.00;103078;;;;594927;236;24042;-83
2022/03/19 02:53:04;;;;;;;26.63;12.63;;;4.00;99.90;3.00;103076;;;;595259;236;24097;-82
2022/03/19 02:55:35;;;;;;;27.93;12.40;;;4.00;99.90;3.00;103078;;;;596433;236;24074;-82
2022/03/19 02:58:05;;;;;;;35.57;13.30;;;3.90;99.90;3.00;103084;;;;596617;236;24031;-82
2022/03/19 03:00:33;;;;;;;23.30;11.03;;;3.90;99.90;3.00;103084;;;;596574;236;24042;-82
2022/03/19 03:03:02;;;;;;;28.93;12.83;;;3.90;99.90;2.90;103085;;;;597780;236;24053;-82
2022/03/19 03:05:27;;;;;;;25.00;11.73;;;3.90;99.90;2.90;103091;;;;602814;236;24096;-83
2022/03/19 03:07:59;;;;;;;26.67;10.67;;;3.90;99.90;2.90;103096;;;;597424;236;24023;-83
2022/03/19 03:10:26;;;;;;;23.80;11.17;;;3.90;99.90;2.90;103082;;;;600720;236;24025;-82
2022/03/19 03:12:51;;;;;;;25.90;11.37;;;3.80;99.90;2.80;103077;;;;597130;236;24076;-82
2022/03/19 03:15:22;;;;;;;28.90;12.60;;;3.80;99.90;2.80;103080;;;;596990;236;24036;-82
2022/03/19 03:17:47;;;;;;;20.10;9.70;;;3.80;99.90;2.80;103078;;;;606363;236;24035;-81
2022/03/19 03:20:18;;;;;;;23.37;11.60;;;3.80;99.90;2.80;103086;;;;599735;236;24037;-80
2022/03/19 03:22:44;;;;;;;21.03;9.90;;;3.80;99.90;2.90;103075;;;;596708;236;24069;-80
2022/03/19 03:25:11;;;;;;;21.83;10.77;;;3.80;99.90;2.80;103077;;;;602589;236;24041;-82
2022/03/19 03:27:39;;;;;;;29.10;11.57;;;3.80;99.90;2.90;103077;;;;606378;236;24030;-81
2022/03/19 03:30:10;;;;;;;15.70;9.37;;;3.80;99.90;2.80;103079;;;;597178;235;24082;-82
2022/03/19 03:32:35;;;;;;;18.27;8.37;;;3.80;99.90;2.80;103085;;;;606660;236;24093;-82
2022/03/19 03:35:03;;;;;;;17.33;8.63;;;3.80;99.90;2.80;103087;;;;602934;236;24025;-82
2022/03/19 03:37:31;;;;;;;22.23;9.60;;;3.80;99.90;2.80;103086;;;;602892;236;24097;-82
2022/03/19 03:39:59;;;;;;;19.77;9.00;;;3.80;99.90;2.80;103086;;;;602584;236;24097;-81
2022/03/19 03:42:27;;;;;;;26.07;9.77;;;3.80;99.90;2.80;103089;;;;602732;236;24039;-82
2022/03/19 03:44:58;;;;;;;19.03;9.10;;;3.80;99.90;2.80;103088;;;;602268;236;24025;-83
2022/03/19 03:47:22;;;;;;;24.43;9.87;;;3.80;99.90;2.80;103090;;;;596409;236;24087;-82
2022/03/19 03:49:54;;;;;;;25.93;10.13;;;3.80;99.90;2.80;103099;;;;602180;236;24037;-82
2022/03/19 03:52:18;;;;;;;27.43;9.80;;;3.80;99.90;2.80;103101;;;;595473;236;24083;-80
2022/03/19 03:54:50;;;;;;;17.53;9.30;;;3.80;99.90;2.90;103093;;;;600758;236;24084;-81
2022/03/19 03:57:15;;;;;;;17.30;9.13;;;3.80;99.90;2.90;103097;;;;596371;236;24101;-82
2022/03/19 03:59:43;;;;;;;17.43;7.87;;;3.80;99.90;2.90;103105;;;;602211;236;24062;-82
2022/03/19 04:02:11;;;;;;;14.33;7.60;;;3.90;99.90;2.90;103111;;;;602091;236;24078;-82
2022/03/19 04:04:42;;;;;;;21.60;8.60;;;3.80;99.90;2.90;103102;;;;602102;236;24054;-81
2022/03/19 04:07:06;;;;;;;16.57;8.47;;;3.80;99.90;2.80;103107;;;;605998;235;24050;-82
2022/03/19 04:09:34;;;;;;;23.07;9.77;;;3.80;99.90;2.80;103103;;;;602201;236;24024;-83
2022/03/19 04:12:05;;;;;;;20.57;9.70;;;3.80;99.90;2.80;103103;;;;596866;236;24078;-83
2022/03/19 04:14:30;;;;;;;21.57;9.47;;;3.80;99.90;2.80;103110;;;;597656;236;24125;-83
2022/03/19 04:16:59;;;;;;;24.77;10.40;;;3.70;99.90;2.80;103102;;;;598095;236;24048;-82
2022/03/19 04:19:27;;;;;;;28.33;10.13;;;3.70;99.90;2.70;103108;;;;597587;236;24047;-83
2022/03/19 04:21:55;;;;;;;22.60;10.27;;;3.70;99.90;2.70;103101;;;;597588;236;25133;-82
2022/03/19 04:24:26;;;;;;;21.70;10.00;;;3.70;99.90;2.60;103108;;;;597266;236;24048;-83
2022/03/19 04:26:51;;;;;;;25.40;9.67;;;3.60;99.90;2.60;103113;;;;597108;236;24050;-83
2022/03/19 04:29:22;;;;;;;22.70;9.37;;;3.60;99.90;2.60;103116;;;;603032;236;24094;-82
2022/03/19 04:31:47;;;;;;;24.10;9.73;;;3.50;99.90;2.50;103119;;;;597472;236;24103;-83
2022/03/19 04:34:18;;;;;;;23.00;9.33;;;3.40;99.90;2.50;103121;;;;602932;236;24069;-82
2022/03/19 04:36:44;;;;;;;17.63;9.80;;;3.40;99.90;2.40;103128;;;;597339;236;24038;-83
2022/03/19 04:39:11;;;;;;;21.33;9.03;;;3.40;99.90;2.40;103133;;;;602951;236;24094;-81
2022/03/19 04:41:42;;;;;;;21.93;9.57;;;3.40;99.90;2.40;103128;;;;601511;236;24206;-82
2022/03/19 04:44:11;;;;;;;20.37;10.40;;;3.40;99.90;2.40;103126;;;;597430;236;24032;-83
2022/03/19 04:46:35;;;;;;;20.07;9.60;;;3.40;99.90;2.40;103131;;;;593518;241;24127;-82
2022/03/19 04:49:03;;;;;;;14.10;7.20;;;3.40;99.90;2.40;103136;;;;584411;242;24078;-83
2022/03/19 04:51:37;;;;;;;14.43;7.77;;;3.40;99.90;2.40;103138;;;;589437;242;24074;-82
2022/03/19 04:54:02;;;;;;;16.60;7.50;;;3.40;99.90;2.40;103140;;;;584156;242;24074;-83
2022/03/19 04:56:30;;;;;;;15.00;8.93;;;3.40;99.90;2.40;103146;;;;584111;242;24148;-83
2022/03/19 04:58:58;;;;;;;17.77;8.30;;;3.40;99.90;2.40;103154;;;;584235;242;24126;-82
2022/03/19 05:01:28;;;;;;;18.53;8.17;;;3.40;99.90;2.40;103155;;;;584177;242;24065;-81
2022/03/19 05:03:59;;;;;;;18.40;9.23;;;3.40;99.90;2.30;103158;;;;584211;242;24068;-83
2022/03/19 05:06:24;;;;;;;18.70;8.83;;;3.40;99.90;2.30;103162;;;;583928;242;24156;-81
2022/03/19 05:11:41;;;;;;;17.23;7.97;;;3.30;99.90;2.30;103160;;;;588850;242;24100;-83
2022/03/19 05:14:09;;;;;;;19.60;9.17;;;3.30;99.90;2.20;103170;;;;584243;242;24061;-83
2022/03/19 05:16:37;;;;;;;17.47;9.27;;;3.20;99.90;2.20;103173;;;;584032;242;24160;-83
2022/03/19 05:19:06;;;;;;;14.97;7.50;;;3.20;99.90;2.20;103173;;;;584261;242;24100;-83
2022/03/19 05:21:34;;;;;;;20.60;9.60;;;3.20;99.90;2.20;103177;;;;588871;242;24108;-83
2022/03/19 05:24:01;;;;;;;21.93;9.03;;;3.20;99.90;2.20;103187;;;;588754;242;24119;-83
2022/03/19 05:26:29;;;;;;;15.07;8.27;;;3.20;99.90;2.20;103193;;;;589942;241;24059;-84
2022/03/19 05:28:57;;;;;;;12.63;6.70;;;3.20;99.90;2.20;103190;;;;590100;241;24100;-81
2022/03/19 05:31:28;;;;;;;16.00;7.73;;;3.20;99.90;2.20;103203;;;;590149;241;24108;-83
2022/03/19 05:36:38;;;;;;;21.77;8.67;;;3.20;99.90;2.30;103185;;;;585106;241;24046;-82
2022/03/19 05:39:07;;;;;;;28.33;14.02;;;3.30;99.90;2.30;103188;;;;577923;241;35110;-82
2022/03/19 05:41:35;;;;;;;28.20;12.73;;;3.30;99.90;2.40;103187;;;;584960;241;24052;-80
2022/03/19 05:44:03;;;;;;;23.50;11.73;;;3.40;99.90;2.40;103185;;;;584938;241;24081;-83
2022/03/19 05:46:31;;;;;;;24.17;11.03;;;3.40;99.90;2.40;103191;;;;584799;241;24141;-82
2022/03/19 05:48:59;;;;;;;19.90;9.70;;;3.40;99.90;2.50;103192;;;;593536;241;24070;-83
2022/03/19 05:51:27;;;;;;;19.67;8.70;;;3.50;99.90;2.60;103197;;;;589295;241;24077;-82
2022/03/19 05:53:55;;;;;;;24.23;9.47;;;3.50;99.90;2.60;103198;;;;589393;241;24067;-82
2022/03/19 05:56:24;;;;;;;24.37;9.17;;;3.60;99.90;2.60;103201;;;;589208;241;24100;-82
2022/03/19 05:58:55;;;;;;;19.73;7.67;;;3.60;99.90;2.70;103202;;;;588432;241;24101;-82
2022/03/19 06:01:26;;;;;;;21.83;9.07;;;3.70;99.90;2.70;103203;;;;584087;242;24066;-82
2022/03/19 06:03:48;;;;;;;16.47;8.27;;;3.70;99.90;2.70;103210;;;;588388;242;25144;-82
2022/03/19 06:06:16;;;;;;;20.27;8.90;;;3.70;99.90;2.70;103213;;;;589001;242;24056;-81
2022/03/19 06:08:44;;;;;;;17.17;8.37;;;3.70;99.90;2.70;103219;;;;588905;242;24100;-82
2022/03/19 06:11:12;;;;;;;21.00;8.00;;;3.70;99.90;2.70;103209;;;;589051;242;24088;-81
2022/03/19 06:13:44;;;;;;;18.73;8.30;;;3.70;99.90;2.70;103215;;;;588995;242;24113;-82
2022/03/19 06:16:08;;;;;;;16.83;7.67;;;3.70;99.90;2.70;103221;;;;583810;242;24084;-81
2022/03/19 06:18:36;;;;;;;18.37;8.53;;;3.70;99.90;2.70;103210;;;;584114;242;24066;-81
2022/03/19 06:21:05;;;;;;;15.40;7.57;;;3.70;99.90;2.70;103215;;;;584048;242;25113;-81
2022/03/19 06:23:33;;;;;;;24.47;8.80;;;3.80;99.90;2.80;103228;;;;589038;242;24058;-81
2022/03/19 06:26:01;;;;;;;16.83;6.77;;;3.70;99.90;2.80;103235;;;;588877;242;24106;-80
2022/03/19 06:28:30;;;;;;;16.30;7.53;;;3.80;99.90;2.90;103235;;;;589304;242;24122;-80
2022/03/19 06:30:58;;;;;;;21.67;11.93;;;3.80;99.90;2.90;103236;;;;584192;242;35089;-81
2022/03/19 06:33:26;;;;;;;21.10;9.87;;;3.80;99.90;2.90;103238;;;;584519;242;24068;-80
2022/03/19 06:38:40;;;;;;;14.97;8.13;;;4.00;99.90;3.00;103253;;;;592398;241;24057;-80
2022/03/19 06:41:08;;;;;;;13.80;6.70;;;3.90;99.90;3.10;103249;;;;585993;241;24096;-81
2022/03/19 06:43:37;;;;;;;10.90;6.63;;;4.00;99.90;3.10;103247;;;;585219;241;24039;-81
2022/03/19 06:46:04;;;;;;;17.67;7.30;;;4.10;99.90;3.10;103255;;;;589839;241;24017;-81
2022/03/19 06:48:33;;;;;;;9.90;7.23;;;4.10;99.90;3.10;103259;;;;585035;241;24051;-82
2022/03/19 06:51:01;;;;;;;11.20;6.60;;;4.10;99.90;3.10;103256;;;;589314;241;24042;-82
2022/03/19 06:53:29;;;;;;;13.73;6.37;;;4.10;99.90;3.10;103265;;;;589369;241;24041;-81
2022/03/19 06:55:57;;;;;;;10.97;6.60;;;4.10;99.90;3.00;103266;;;;584414;241;24029;-82
2022/03/19 06:58:25;;;;;;;15.33;6.40;;;4.10;99.90;3.00;103267;;;;584550;241;24038;-81
2022/03/19 07:00:52;;;;;;;12.30;6.50;;;4.00;99.90;3.00;103267;;;;589113;241;24097;-80
2022/03/19 07:03:23;;;;;;;21.90;7.23;;;4.00;99.90;2.90;103269;;;;589349;241;24015;-81
2022/03/19 07:05:49;;;;;;;16.90;6.37;;;3.90;99.90;3.00;103263;;;;593250;239;24015;-81
2022/03/19 07:08:17;;;;;;;20.03;7.07;;;3.90;99.90;2.90;103279;;;;589369;241;24081;-81
2022/03/19 07:10:45;;;;;;;16.27;6.30;;;3.90;99.90;2.90;103274;;;;584456;241;24014;-83
2022/03/19 07:13:13;;;;;;;16.27;6.60;;;3.90;99.90;2.90;103270;;;;589066;242;24069;-82
2022/03/19 07:15:41;;;;;;;11.20;5.87;;;3.90;99.90;3.00;103274;;;;588996;242;24000;-81
2022/03/19 07:18:09;;;;;;;19.80;6.73;;;3.90;99.90;3.00;103274;;;;588837;242;24050;-82
2022/03/19 07:20:37;;;;;;;29.60;6.73;;;3.90;99.90;2.90;103286;;;;589058;242;24077;-81
2022/03/19 07:23:05;;;;;;;19.33;7.07;;;3.90;99.90;2.90;103289;;;;588884;242;24030;-82
2022/03/19 07:25:37;;;;;;;14.50;6.90;;;3.80;99.90;2.80;103287;;;;583977;242;24062;-80
2022/03/19 07:28:07;;;;;;;11.87;5.83;;;3.80;99.90;2.80;103283;;;;583916;242;24066;-82
2022/03/19 07:30:35;;;;;;;7.97;5.20;;;3.80;99.90;2.90;103283;;;;588748;242;24036;-81
2022/03/19 07:33:03;;;;;;;8.37;5.10;;;3.80;99.90;2.80;103288;;;;589309;242;24073;-82
2022/03/19 07:35:31;;;;;;;11.93;5.20;;;3.80;99.90;2.90;103287;;;;589316;242;24118;-83
2022/03/19 07:38:00;;;;;;;11.60;5.00;;;3.80;99.90;2.90;103297;;;;593821;242;24053;-81
2022/03/19 07:43:13;;;;;;;9.60;4.80;;;3.80;99.90;2.90;103306;;;;570274;251;24140;-82
2022/03/19 07:45:41;;;;;;;8.27;4.67;;;3.90;99.90;2.90;103302;;;;561786;251;24160;-81
2022/03/19 07:48:09;;;;;;;7.80;4.53;;;3.90;99.90;3.00;103303;;;;576220;247;24182;-83
2022/03/19 07:50:37;;;;;;;17.03;5.60;;;3.90;99.90;3.00;103307;;;;560956;254;24158;-82
2022/03/19 07:53:05;;;;;;;6.37;4.03;;;4.00;99.90;3.00;103311;;;;572257;246;24134;-83
2022/03/19 07:55:32;;;;;;;11.10;3.83;;;4.00;99.90;3.00;103313;;;;562552;251;25214;-82
2022/03/19 07:58:01;;;;;;;7.53;3.40;;;4.10;99.90;3.10;103310;;;;562366;251;24127;-81
2022/03/19 08:00:29;;;;;;;4.63;3.50;;;4.00;99.90;3.10;103316;;;;577960;246;24141;-81
2022/03/19 08:02:57;;;;;;;6.97;2.90;;;4.10;99.90;3.10;103317;;;;567393;251;24229;-79
2022/03/19 08:05:25;;;;;;;7.43;3.53;;;4.20;99.90;3.10;103315;;;;567984;251;24157;-81
2022/03/19 08:07:53;;;;;;;7.73;3.20;;;4.20;99.90;3.10;103313;;;;577933;246;24159;-79
2022/03/19 08:10:24;;;;;;;5.50;3.60;;;4.10;99.90;3.10;103312;;;;566949;251;24101;-82
2022/03/19 08:12:49;;;;;;;7.07;3.63;;;4.20;99.90;3.20;103316;;;;572349;246;24139;-81
2022/03/19 08:15:17;;;;;;;6.73;3.70;;;4.20;99.90;3.30;103312;;;;578687;244;24055;-82
2022/03/19 08:17:45;;;;;;;4.43;3.00;;;4.20;99.90;3.40;103312;;;;577942;244;24067;-81
2022/03/19 08:20:15;;;;;;;7.73;3.80;;;4.30;99.90;3.50;103326;;;;578052;244;24114;-80
2022/03/19 08:22:41;;;;;;;7.87;4.03;;;4.50;99.90;3.60;103328;;;;576428;244;25136;-82
2022/03/19 08:25:12;;;;;;;4.13;3.60;;;4.60;99.90;3.70;103323;;;;586826;244;24173;-80
2022/03/19 08:27:37;;;;;;;5.97;4.40;;;4.70;99.90;3.70;103326;;;;577278;244;24107;-80
2022/03/19 08:30:05;;;;;;;6.50;2.63;;;4.70;99.90;3.70;103323;;;;586563;244;24078;-80
2022/03/19 08:32:33;;;;;;;6.77;3.43;;;4.70;99.90;3.70;103326;;;;577733;244;24102;-79
2022/03/19 08:35:04;;;;;;;8.73;4.33;;;4.60;99.90;3.80;103324;;;;577892;244;24064;-81
2022/03/19 08:37:28;;;;;;;5.37;3.50;;;4.80;99.90;4.00;103338;;;;577380;244;24067;-80
2022/03/19 08:42:42;;;;;;;4.60;3.27;;;5.00;99.90;4.00;103346;;;;564176;250;24158;-82
2022/03/19 08:45:10;;;;;;;5.07;3.30;;;5.00;99.90;4.00;103344;;;;565450;250;24235;-82
2022/03/19 08:47:41;;;;;;;8.73;3.77;;;5.00;99.90;4.00;103347;;;;566911;250;24095;-82
2022/03/19 08:50:09;;;;;;;7.70;3.73;;;5.00;99.90;3.90;103339;;;;556141;254;24083;-81
2022/03/19 08:52:34;;;;;;;10.03;3.67;;;4.90;99.90;3.90;103345;;;;566204;249;24127;-83
2022/03/19 08:55:02;;;;;;;6.43;4.53;;;4.90;99.90;4.00;103342;;;;564869;252;24161;-83
2022/03/19 08:57:31;;;;;;;7.30;3.70;;;4.90;99.90;4.00;103355;;;;560235;249;24147;-83
2022/03/19 08:59:58;;;;;;;3.67;2.47;;;5.00;99.90;4.00;103351;;;;567551;248;24091;-83
2022/03/19 09:02:25;;;;;;;4.83;3.73;;;4.90;99.90;4.00;103359;;;;572038;245;25226;-82
2022/03/19 09:04:53;;;;;;;4.30;2.87;;;5.00;99.90;4.10;103359;;;;570666;245;24183;-81
2022/03/19 09:07:21;;;;;;;4.10;2.77;;;5.00;99.90;4.00;103366;;;;562844;249;24080;-82
2022/03/19 09:09:52;;;;;;;3.60;2.50;;;5.00;99.90;4.00;103360;;;;573404;245;24073;-82
2022/03/19 09:12:17;;;;;;;2.83;2.53;;;5.00;99.90;4.00;103367;;;;562584;249;24146;-83
2022/03/19 09:14:45;;;;;;;5.70;3.13;;;5.00;99.90;4.00;103377;;;;578961;245;24104;-82
2022/03/19 09:17:13;;;;;;;8.83;4.13;;;5.00;99.90;4.00;103372;;;;562713;249;25161;-83
2022/03/19 09:19:41;;;;;;;6.60;3.60;;;4.90;99.90;4.00;103372;;;;578723;243;24037;-82
2022/03/19 09:22:09;;;;;;;4.23;3.73;;;4.90;99.90;4.10;103375;;;;562528;249;24114;-82
2022/03/19 09:24:37;;;;;;;7.90;4.43;;;5.00;99.90;4.10;103373;;;;578844;245;24098;-82
2022/03/19 09:27:05;;;;;;;5.17;4.27;;;5.10;99.90;4.00;103371;;;;566029;242;24160;-82
2022/03/19 09:29:32;;;;;;;9.73;4.00;;;5.10;99.90;4.10;103369;;;;561772;251;24136;-82
2022/03/19 09:32:00;;;;;;;5.40;3.80;;;5.10;99.90;4.10;103367;;;;566726;249;24108;-82
2022/03/19 09:34:29;;;;;;;7.73;4.97;;;5.10;99.90;4.10;103367;;;;574601;249;27361;-83
2022/03/19 09:36:56;;;;;;;7.43;5.37;;;5.10;99.90;4.20;103372;;;;581453;244;24087;-82
2022/03/19 09:39:24;;;;;;;6.93;4.50;;;5.20;99.90;4.30;103376;;;;584724;244;24056;-83
2022/03/19 09:41:53;;;;;;;8.20;4.27;;;5.30;99.90;4.40;103374;;;;561954;249;24124;-83
2022/03/19 09:44:20;;;;;;;7.30;4.60;;;5.40;99.90;4.50;103384;;;;558517;253;24092;-83
2022/03/19 09:46:48;;;;;;;5.93;4.43;;;5.50;99.90;4.40;103388;;;;566326;249;24091;-83
2022/03/19 09:49:19;;;;;;;3.70;3.37;;;5.40;99.90;4.30;103384;;;;577071;247;24140;-82
2022/03/19 09:51:44;;;;;;;3.20;2.70;;;5.40;99.90;4.30;103387;;;;570583;246;24091;-83
2022/03/19 09:54:13;;;;;;;5.17;3.63;;;5.30;99.90;4.20;103383;;;;567698;247;24141;-82
2022/03/19 09:56:40;;;;;;;5.97;3.63;;;5.30;99.90;4.20;103388;;;;574010;247;24121;-83
2022/03/19 09:59:08;;;;;;;3.03;2.63;;;5.20;99.90;4.20;103397;;;;578357;246;25435;-83
2022/03/19 10:01:36;;;;;;;2.53;2.30;;;5.10;99.90;4.30;103392;;;;572763;250;24092;-83
2022/03/19 10:04:07;;;;;;;3.73;3.10;;;5.30;99.90;4.40;103394;;;;558773;250;24121;-83
2022/03/19 10:09:20;;;;;;;7.77;4.03;;;5.60;99.90;4.70;103393;;;;565318;249;24242;-83
2022/03/19 10:11:48;;;;;;;4.10;3.67;;;5.70;99.90;4.80;103390;;;;583615;244;24144;-82
2022/03/19 10:14:22;;;;;;;6.20;4.10;;;5.80;99.90;4.80;103398;;;;567465;246;24129;-84
2022/03/19 10:16:52;;;;;;;5.57;3.97;;;5.80;99.90;4.80;103396;;;;569447;246;24126;-83
2022/03/19 10:19:17;;;;;;;10.50;4.47;;;5.70;99.90;4.80;103396;;;;567271;250;24129;-83
2022/03/19 10:21:45;;;;;;;6.53;3.83;;;5.70;99.90;4.70;103394;;;;574659;246;24078;-82
2022/03/19 10:24:28;;;;;;;11.40;4.80;;;5.80;99.90;4.80;103389;;;;583270;246;24098;-84
2022/03/19 10:26:57;;;;;;;6.27;4.30;;;5.80;99.90;4.90;103394;;;;561697;252;24099;-83
2022/03/19 10:29:27;;;;;;;6.43;5.20;;;5.90;99.90;5.00;103404;;;;574285;246;25241;-84
2022/03/19 10:31:56;;;;;;;8.13;5.80;;;6.00;99.90;5.00;103403;;;;574281;246;24091;-84
2022/03/19 10:34:23;;;;;;;8.20;5.37;;;6.00;99.90;5.00;103409;;;;573958;246;24155;-83
2022/03/19 10:36:54;;;;;;;7.60;5.30;;;6.00;99.90;5.00;103395;;;;583411;246;24096;-83
2022/03/19 10:39:21;;;;;;;13.63;6.20;;;6.00;99.90;5.10;103399;;;;561986;251;24129;-83
2022/03/19 10:41:49;;;;;;;8.60;5.20;;;6.10;99.90;5.20;103412;;;;572586;246;24095;-84
2022/03/19 10:44:17;;;;;;;6.63;5.67;;;6.20;99.90;5.30;103416;;;;572550;246;24135;-84
2022/03/19 10:46:48;;;;;;;8.67;5.20;;;6.30;99.90;5.40;103411;;;;561992;251;24127;-84
2022/03/19 10:49:16;;;;;;;9.73;6.07;;;6.30;99.90;5.40;103413;;;;561566;251;24171;-83
2022/03/19 10:51:47;;;;;;;9.83;6.03;;;6.40;99.90;5.40;103422;;;;561782;251;24160;-84
2022/03/19 10:54:15;;;;;;;8.53;6.13;;;6.40;99.90;5.40;103413;;;;580584;244;24141;-83
2022/03/19 10:56:42;;;;;;;9.87;6.70;;;6.40;99.90;5.50;103409;;;;578459;246;24145;-83
2022/03/19 10:59:10;;;;;;;11.87;6.77;;;6.40;99.90;5.60;103421;;;;573825;245;24094;-84
2022/03/19 11:01:39;;;;;;;9.93;7.00;;;6.60;99.90;5.80;103402;;;;582657;246;24326;-83
2022/03/19 11:04:11;;;;;;;10.83;6.47;;;6.60;99.90;5.90;103409;;;;573754;246;24179;-84
2022/03/19 11:06:37;;;;;;;10.63;8.50;;;6.80;99.90;6.00;103401;;;;568892;246;35346;-84
2022/03/19 11:09:06;;;;;;;9.65;8.10;;;6.90;99.90;6.20;103411;;;;571294;246;35211;-84
2022/03/19 11:11:58;;;;;;;11.53;9.10;;;7.10;99.90;6.40;103410;;;;565613;245;36303;-84
2022/03/19 11:14:29;;;;;;;10.85;8.48;;;7.50;99.90;6.50;103400;;;;565453;251;35503;-81
2022/03/19 11:17:24;;;;;;;11.90;7.93;;;7.50;99.90;6.60;103400;;;;569729;248;24122;-83
2022/03/19 11:19:52;;;;;;;10.07;6.87;;;7.50;99.90;6.70;103408;;;;562305;250;24145;-81
2022/03/19 11:22:21;;;;;;;11.07;6.93;;;7.60;99.90;6.70;103404;;;;566613;250;24084;-82
2022/03/19 11:25:09;;;;;;;11.13;6.13;;;7.70;99.90;6.70;103401;;;;554202;252;24085;-83
2022/03/19 11:27:37;;;;;;;9.80;6.33;;;7.70;99.90;6.90;103399;;;;575106;244;24083;-84
2022/03/19 11:30:06;;;;;;;11.73;6.97;;;8.00;99.90;7.10;103399;;;;570272;247;24088;-86
2022/03/19 11:32:33;;;;;;;6.70;5.33;;;8.00;99.90;7.00;103409;;;;574865;244;24101;-83
2022/03/19 11:35:02;;;;;;;15.37;6.37;;;7.90;99.90;6.80;103396;;;;584282;246;24070;-83
2022/03/19 11:38:01;;;;;;;11.80;7.27;;;7.90;99.90;6.80;103389;;;;566279;250;24130;-83
2022/03/19 11:40:32;;;;;;;14.67;6.90;;;7.80;99.90;6.80;103398;;;;564519;246;24096;-83
2022/03/19 11:43:04;;;;;;;13.07;7.83;;;7.70;99.90;6.80;103390;;;;572313;250;24104;-83